sensor_id;sensor_type;location;lat;lon;timestamp;temperature;humidity
38241;DHT22;24037;49.536;8.500;2022-08-26T00:01:04;19.80;97.40
38241;DHT22;24037;49.536;8.500;2022-08-26T00:03:30;19.70;97.50
38241;DHT22;24037;49.536;8.500;2022-08-26T00:05:56;19.70;97.30
38241;DHT22;24037;49.536;8.500;2022-08-26T00:08:22;19.70;97.50
38241;DHT22;24037;49.536;8.500;2022-08-26T00:10:49;19.70;97.50
38241;DHT22;24037;49.536;8.500;2022-08-26T00:13:15;19.70;97.70
38241;DHT22;24037;49.536;8.500;2022-08-26T00:15:42;19.70;97.60
38241;DHT22;24037;49.536;8.500;2022-08-26T00:18:08;19.70;97.70
38241;DHT22;24037;49.536;8.500;2022-08-26T00:20:34;19.80;97.60
38241;DHT22;24037;49.536;8.500;2022-08-26T00:23:01;19.80;97.40
38241;DHT22;24037;49.536;8.500;2022-08-26T00:28:56;19.70;97.70
38241;DHT22;24037;49.536;8.500;2022-08-26T00:31:22;19.60;98.50
38241;DHT22;24037;49.536;8.500;2022-08-26T00:33:48;19.60;98.10
38241;DHT22;24037;49.536;8.500;2022-08-26T00:36:14;19.60;97.60
38241;DHT22;24037;49.536;8.500;2022-08-26T00:38:40;19.60;97.90
38241;DHT22;24037;49.536;8.500;2022-08-26T00:41:06;19.50;98.00
38241;DHT22;24037;49.536;8.500;2022-08-26T00:43:33;19.50;98.30
38241;DHT22;24037;49.536;8.500;2022-08-26T00:46:03;19.40;98.50
38241;DHT22;24037;49.536;8.500;2022-08-26T00:48:30;19.30;98.70
38241;DHT22;24037;49.536;8.500;2022-08-26T00:51:00;19.30;98.80
38241;DHT22;24037;49.536;8.500;2022-08-26T00:53:27;19.30;99.20
38241;DHT22;24037;49.536;8.500;2022-08-26T00:58:40;19.10;99.60
38241;DHT22;24037;49.536;8.500;2022-08-26T01:01:08;19.10;99.90
38241;DHT22;24037;49.536;8.500;2022-08-26T01:03:34;19.10;99.90
38241;DHT22;24037;49.536;8.500;2022-08-26T01:06:01;19.10;99.90
38241;DHT22;24037;49.536;8.500;2022-08-26T01:08:28;19.00;99.90
38241;DHT22;24037;49.536;8.500;2022-08-26T01:10:54;19.00;99.90
38241;DHT22;24037;49.536;8.500;2022-08-26T01:13:21;19.10;99.90
38241;DHT22;24037;49.536;8.500;2022-08-26T01:15:48;19.10;99.90
38241;DHT22;24037;49.536;8.500;2022-08-26T01:18:15;19.00;99.90
38241;DHT22;24037;49.536;8.500;2022-08-26T01:20:59;18.90;99.90
38241;DHT22;24037;49.536;8.500;2022-08-26T01:23:30;18.90;99.90
38241;DHT22;24037;49.536;8.500;2022-08-26T01:25:58;18.70;99.90
38241;DHT22;24037;49.536;8.500;2022-08-26T01:28:26;18.60;99.90
38241;DHT22;24037;49.536;8.500;2022-08-26T01:30:53;18.60;99.90
38241;DHT22;24037;49.536;8.500;2022-08-26T01:33:22;18.60;99.90
38241;DHT22;24037;49.536;8.500;2022-08-26T01:35:49;18.60;99.90
38241;DHT22;24037;49.536;8.500;2022-08-26T01:38:15;18.60;99.90
38241;DHT22;24037;49.536;8.500;2022-08-26T01:40:42;18.60;99.90
38241;DHT22;24037;49.536;8.500;2022-08-26T01:43:13;18.60;99.90
38241;DHT22;24037;49.536;8.500;2022-08-26T01:45:41;18.60;99.90
38241;DHT22;24037;49.536;8.500;2022-08-26T01:48:15;18.50;99.90
38241;DHT22;24037;49.536;8.500;2022-08-26T01:50:42;18.40;99.90
38241;DHT22;24037;49.536;8.500;2022-08-26T01:53:10;18.30;99.90
38241;DHT22;24037;49.536;8.500;2022-08-26T01:55:38;18.20;99.90
38241;DHT22;24037;49.536;8.500;2022-08-26T01:58:16;18.20;99.90
38241;DHT22;24037;49.536;8.500;2022-08-26T02:00:43;18.10;99.90
38241;DHT22;24037;49.536;8.500;2022-08-26T02:03:09;18.10;99.90
38241;DHT22;24037;49.536;8.500;2022-08-26T02:05:46;18.20;99.90
38241;DHT22;24037;49.536;8.500;2022-08-26T02:08:13;18.20;99.90
38241;DHT22;24037;49.536;8.500;2022-08-26T02:10:39;18.20;99.90
38241;DHT22;24037;49.536;8.500;2022-08-26T02:13:07;18.20;99.90
38241;DHT22;24037;49.536;8.500;2022-08-26T02:15:34;18.20;99.90
38241;DHT22;24037;49.536;8.500;2022-08-26T02:18:02;18.10;99.90
38241;DHT22;24037;49.536;8.500;2022-08-26T02:20:28;18.10;99.90
38241;DHT22;24037;49.536;8.500;2022-08-26T02:22:56;18.00;99.90
38241;DHT22;24037;49.536;8.500;2022-08-26T02:25:30;17.90;99.90
38241;DHT22;24037;49.536;8.500;2022-08-26T02:27:57;17.90;99.90
38241;DHT22;24037;49.536;8.500;2022-08-26T02:30:24;18.00;99.90
38241;DHT22;24037;49.536;8.500;2022-08-26T02:32:50;18.00;99.90
38241;DHT22;24037;49.536;8.500;2022-08-26T02:35:18;18.00;99.90
38241;DHT22;24037;49.536;8.500;2022-08-26T02:37:45;17.90;99.90
38241;DHT22;24037;49.536;8.500;2022-08-26T02:40:12;18.00;99.90
38241;DHT22;24037;49.536;8.500;2022-08-26T02:42:39;18.00;99.90
38241;DHT22;24037;49.536;8.500;2022-08-26T02:45:05;18.00;99.90
38241;DHT22;24037;49.536;8.500;2022-08-26T02:47:31;17.90;99.90
38241;DHT22;24037;49.536;8.500;2022-08-26T02:49:58;17.90;99.90
38241;DHT22;24037;49.536;8.500;2022-08-26T02:52:24;17.80;99.90
38241;DHT22;24037;49.536;8.500;2022-08-26T02:54:50;17.70;99.90
38241;DHT22;24037;49.536;8.500;2022-08-26T02:57:16;17.50;99.90
38241;DHT22;24037;49.536;8.500;2022-08-26T02:59:42;17.50;99.90
38241;DHT22;24037;49.536;8.500;2022-08-26T03:02:08;17.50;99.90
38241;DHT22;24037;49.536;8.500;2022-08-26T03:04:36;17.50;99.90
38241;DHT22;24037;49.536;8.500;2022-08-26T03:07:03;17.50;99.90
38241;DHT22;24037;49.536;8.500;2022-08-26T03:09:29;17.50;99.90
38241;DHT22;24037;49.536;8.500;2022-08-26T03:11:55;17.70;99.90
38241;DHT22;24037;49.536;8.500;2022-08-26T03:14:21;17.70;99.90
38241;DHT22;24037;49.536;8.500;2022-08-26T03:16:49;17.70;99.90
38241;DHT22;24037;49.536;8.500;2022-08-26T03:19:17;17.60;99.90
38241;DHT22;24037;49.536;8.500;2022-08-26T03:21:43;17.60;99.90
38241;DHT22;24037;49.536;8.500;2022-08-26T03:24:09;17.60;99.90
38241;DHT22;24037;49.536;8.500;2022-08-26T03:26:35;17.60;99.90
38241;DHT22;24037;49.536;8.500;2022-08-26T03:29:02;17.60;99.90
38241;DHT22;24037;49.536;8.500;2022-08-26T03:31:47;17.50;99.90
38241;DHT22;24037;49.536;8.500;2022-08-26T03:34:13;17.40;99.90
38241;DHT22;24037;49.536;8.500;2022-08-26T03:36:39;17.40;99.90
38241;DHT22;24037;49.536;8.500;2022-08-26T03:39:05;17.30;99.90
38241;DHT22;24037;49.536;8.500;2022-08-26T03:41:34;17.40;99.90
38241;DHT22;24037;49.536;8.500;2022-08-26T03:44:02;17.40;99.90
38241;DHT22;24037;49.536;8.500;2022-08-26T03:46:29;17.40;99.90
38241;DHT22;24037;49.536;8.500;2022-08-26T03:48:55;17.40;99.90
38241;DHT22;24037;49.536;8.500;2022-08-26T03:51:22;17.40;99.90
38241;DHT22;24037;49.536;8.500;2022-08-26T03:53:48;17.30;99.90
38241;DHT22;24037;49.536;8.500;2022-08-26T03:56:15;17.30;99.90
38241;DHT22;24037;49.536;8.500;2022-08-26T03:58:41;17.30;99.90
38241;DHT22;24037;49.536;8.500;2022-08-26T04:01:09;17.40;99.90
38241;DHT22;24037;49.536;8.500;2022-08-26T04:03:36;17.40;99.90
38241;DHT22;24037;49.536;8.500;2022-08-26T04:06:21;17.40;99.90
38241;DHT22;24037;49.536;8.500;2022-08-26T04:08:47;17.40;99.90
38241;DHT22;24037;49.536;8.500;2022-08-26T04:11:19;17.40;99.90
38241;DHT22;24037;49.536;8.500;2022-08-26T04:13:46;17.30;99.90
38241;DHT22;24037;49.536;8.500;2022-08-26T04:16:13;17.30;99.90
38241;DHT22;24037;49.536;8.500;2022-08-26T04:18:39;17.30;99.90
38241;DHT22;24037;49.536;8.500;2022-08-26T04:21:06;17.30;99.90
38241;DHT22;24037;49.536;8.500;2022-08-26T04:23:32;17.30;99.90
38241;DHT22;24037;49.536;8.500;2022-08-26T04:25:59;17.20;99.90
38241;DHT22;24037;49.536;8.500;2022-08-26T04:28:25;17.20;99.90
38241;DHT22;24037;49.536;8.500;2022-08-26T04:30:51;17.30;99.90
38241;DHT22;24037;49.536;8.500;2022-08-26T04:33:17;17.30;99.90
38241;DHT22;24037;49.536;8.500;2022-08-26T04:35:43;17.40;99.90
38241;DHT22;24037;49.536;8.500;2022-08-26T04:38:10;17.40;99.90
38241;DHT22;24037;49.536;8.500;2022-08-26T04:40:36;17.40;99.90
38241;DHT22;24037;49.536;8.500;2022-08-26T04:43:02;17.40;99.90
38241;DHT22;24037;49.536;8.500;2022-08-26T04:45:29;17.50;99.90
38241;DHT22;24037;49.536;8.500;2022-08-26T04:47:55;17.40;99.90
38241;DHT22;24037;49.536;8.500;2022-08-26T04:50:22;17.30;99.90
38241;DHT22;24037;49.536;8.500;2022-08-26T04:52:49;17.20;99.90
38241;DHT22;24037;49.536;8.500;2022-08-26T04:55:15;17.20;99.90
38241;DHT22;24037;49.536;8.500;2022-08-26T04:57:41;17.20;99.90
38241;DHT22;24037;49.536;8.500;2022-08-26T05:00:08;17.30;99.90
38241;DHT22;24037;49.536;8.500;2022-08-26T05:02:36;17.40;99.90
38241;DHT22;24037;49.536;8.500;2022-08-26T05:05:02;17.50;99.90
38241;DHT22;24037;49.536;8.500;2022-08-26T05:07:29;17.60;99.90
38241;DHT22;24037;49.536;8.500;2022-08-26T05:09:56;17.80;99.90
38241;DHT22;24037;49.536;8.500;2022-08-26T05:12:22;17.90;99.90
38241;DHT22;24037;49.536;8.500;2022-08-26T05:14:48;18.00;99.90
38241;DHT22;24037;49.536;8.500;2022-08-26T05:17:13;18.10;99.90
38241;DHT22;24037;49.536;8.500;2022-08-26T05:19:40;18.20;99.90
38241;DHT22;24037;49.536;8.500;2022-08-26T05:22:05;18.20;99.90
38241;DHT22;24037;49.536;8.500;2022-08-26T05:24:31;18.20;99.90
38241;DHT22;24037;49.536;8.500;2022-08-26T05:26:57;18.20;99.90
38241;DHT22;24037;49.536;8.500;2022-08-26T05:29:23;18.20;99.90
38241;DHT22;24037;49.536;8.500;2022-08-26T05:31:50;18.20;99.90
38241;DHT22;24037;49.536;8.500;2022-08-26T05:34:16;18.20;99.90
38241;DHT22;24037;49.536;8.500;2022-08-26T05:36:42;18.30;99.90
38241;DHT22;24037;49.536;8.500;2022-08-26T05:39:08;18.30;99.90
38241;DHT22;24037;49.536;8.500;2022-08-26T05:41:35;18.40;99.90
38241;DHT22;24037;49.536;8.500;2022-08-26T05:44:03;18.40;99.90
38241;DHT22;24037;49.536;8.500;2022-08-26T05:46:30;18.50;99.90
38241;DHT22;24037;49.536;8.500;2022-08-26T05:48:56;18.60;99.90
38241;DHT22;24037;49.536;8.500;2022-08-26T05:51:23;18.70;99.90
38241;DHT22;24037;49.536;8.500;2022-08-26T05:53:49;18.80;99.90
38241;DHT22;24037;49.536;8.500;2022-08-26T05:56:15;18.80;99.90
38241;DHT22;24037;49.536;8.500;2022-08-26T05:58:42;18.90;99.90
38241;DHT22;24037;49.536;8.500;2022-08-26T06:01:09;18.90;99.90
38241;DHT22;24037;49.536;8.500;2022-08-26T06:03:37;18.80;99.90
38241;DHT22;24037;49.536;8.500;2022-08-26T06:06:05;18.80;99.90
38241;DHT22;24037;49.536;8.500;2022-08-26T06:08:32;18.90;99.90
38241;DHT22;24037;49.536;8.500;2022-08-26T06:10:59;19.10;99.90
38241;DHT22;24037;49.536;8.500;2022-08-26T06:13:26;19.10;99.90
38241;DHT22;24037;49.536;8.500;2022-08-26T06:15:52;19.20;99.90
38241;DHT22;24037;49.536;8.500;2022-08-26T06:18:20;19.50;99.90
38241;DHT22;24037;49.536;8.500;2022-08-26T06:20:47;20.50;99.90
38241;DHT22;24037;49.536;8.500;2022-08-26T06:23:14;21.70;98.80
38241;DHT22;24037;49.536;8.500;2022-08-26T06:26:09;23.20;94.20
38241;DHT22;24037;49.536;8.500;2022-08-26T06:28:35;24.60;88.30
38241;DHT22;24037;49.536;8.500;2022-08-26T06:31:01;25.20;83.10
38241;DHT22;24037;49.536;8.500;2022-08-26T06:33:28;25.40;78.90
38241;DHT22;24037;49.536;8.500;2022-08-26T06:35:54;24.60;80.60
38241;DHT22;24037;49.536;8.500;2022-08-26T06:38:20;24.20;83.50
38241;DHT22;24037;49.536;8.500;2022-08-26T06:40:50;24.10;83.60
38241;DHT22;24037;49.536;8.500;2022-08-26T06:43:19;23.80;83.20
38241;DHT22;24037;49.536;8.500;2022-08-26T06:45:46;23.10;87.30
38241;DHT22;24037;49.536;8.500;2022-08-26T06:48:13;23.20;87.80
38241;DHT22;24037;49.536;8.500;2022-08-26T06:50:39;22.90;90.20
38241;DHT22;24037;49.536;8.500;2022-08-26T06:53:06;22.70;90.60
38241;DHT22;24037;49.536;8.500;2022-08-26T06:55:37;23.00;91.00
38241;DHT22;24037;49.536;8.500;2022-08-26T06:58:03;23.20;89.40
38241;DHT22;24037;49.536;8.500;2022-08-26T07:00:29;23.10;89.80
38241;DHT22;24037;49.536;8.500;2022-08-26T07:02:57;23.50;88.10
38241;DHT22;24037;49.536;8.500;2022-08-26T07:05:23;23.90;84.30
38241;DHT22;24037;49.536;8.500;2022-08-26T07:07:50;23.50;86.00
38241;DHT22;24037;49.536;8.500;2022-08-26T07:10:17;23.20;87.00
38241;DHT22;24037;49.536;8.500;2022-08-26T07:12:43;23.30;86.90
38241;DHT22;24037;49.536;8.500;2022-08-26T07:15:09;23.40;85.90
38241;DHT22;24037;49.536;8.500;2022-08-26T07:17:36;23.40;85.40
38241;DHT22;24037;49.536;8.500;2022-08-26T07:20:04;23.00;87.00
38241;DHT22;24037;49.536;8.500;2022-08-26T07:22:32;23.10;87.80
38241;DHT22;24037;49.536;8.500;2022-08-26T07:24:59;23.80;84.80
38241;DHT22;24037;49.536;8.500;2022-08-26T07:27:25;24.40;82.00
38241;DHT22;24037;49.536;8.500;2022-08-26T07:29:54;24.70;77.70
38241;DHT22;24037;49.536;8.500;2022-08-26T07:32:21;24.40;77.60
38241;DHT22;24037;49.536;8.500;2022-08-26T07:34:47;23.80;80.90
38241;DHT22;24037;49.536;8.500;2022-08-26T07:37:13;23.60;83.40
38241;DHT22;24037;49.536;8.500;2022-08-26T07:39:40;23.80;83.50
38241;DHT22;24037;49.536;8.500;2022-08-26T07:42:06;24.20;83.20
38241;DHT22;24037;49.536;8.500;2022-08-26T07:44:33;25.20;77.80
38241;DHT22;24037;49.536;8.500;2022-08-26T07:46:59;25.90;73.90
38241;DHT22;24037;49.536;8.500;2022-08-26T07:49:25;26.10;72.20
38241;DHT22;24037;49.536;8.500;2022-08-26T07:51:52;25.80;72.30
38241;DHT22;24037;49.536;8.500;2022-08-26T07:54:18;25.10;74.10
38241;DHT22;24037;49.536;8.500;2022-08-26T07:56:44;24.50;76.00
38241;DHT22;24037;49.536;8.500;2022-08-26T07:59:11;24.00;79.10
38241;DHT22;24037;49.536;8.500;2022-08-26T08:01:37;24.00;79.20
38241;DHT22;24037;49.536;8.500;2022-08-26T08:04:03;24.20;79.60
38241;DHT22;24037;49.536;8.500;2022-08-26T08:06:30;24.10;79.30
38241;DHT22;24037;49.536;8.500;2022-08-26T08:08:57;24.50;79.00
38241;DHT22;24037;49.536;8.500;2022-08-26T08:11:23;25.50;75.10
38241;DHT22;24037;49.536;8.500;2022-08-26T08:13:51;25.70;74.00
38241;DHT22;24037;49.536;8.500;2022-08-26T08:16:17;26.20;72.30
38241;DHT22;24037;49.536;8.500;2022-08-26T08:18:43;26.30;71.60
38241;DHT22;24037;49.536;8.500;2022-08-26T08:21:09;27.10;69.90
38241;DHT22;24037;49.536;8.500;2022-08-26T08:23:35;28.20;65.50
38241;DHT22;24037;49.536;8.500;2022-08-26T08:26:02;27.60;65.60
38241;DHT22;24037;49.536;8.500;2022-08-26T08:28:29;27.40;66.50
38241;DHT22;24037;49.536;8.500;2022-08-26T08:30:55;27.00;66.70
38241;DHT22;24037;49.536;8.500;2022-08-26T08:33:21;26.00;69.50
38241;DHT22;24037;49.536;8.500;2022-08-26T08:35:47;25.50;71.70
38241;DHT22;24037;49.536;8.500;2022-08-26T08:38:14;25.20;72.90
38241;DHT22;24037;49.536;8.500;2022-08-26T08:40:40;24.90;74.20
38241;DHT22;24037;49.536;8.500;2022-08-26T08:43:10;24.60;75.70
38241;DHT22;24037;49.536;8.500;2022-08-26T08:45:41;24.40;76.80
38241;DHT22;24037;49.536;8.500;2022-08-26T08:50:51;24.80;77.40
38241;DHT22;24037;49.536;8.500;2022-08-26T08:53:39;24.90;76.90
38241;DHT22;24037;49.536;8.500;2022-08-26T08:56:16;25.10;76.00
38241;DHT22;24037;49.536;8.500;2022-08-26T08:58:50;24.80;76.30
38241;DHT22;24037;49.536;8.500;2022-08-26T09:01:24;24.90;77.10
38241;DHT22;24037;49.536;8.500;2022-08-26T09:06:33;24.40;78.90
38241;DHT22;24037;49.536;8.500;2022-08-26T09:09:00;24.40;80.20
38241;DHT22;24037;49.536;8.500;2022-08-26T09:11:27;24.50;79.30
38241;DHT22;24037;49.536;8.500;2022-08-26T09:13:54;24.70;78.90
38241;DHT22;24037;49.536;8.500;2022-08-26T09:16:23;24.90;78.40
38241;DHT22;24037;49.536;8.500;2022-08-26T09:21:16;24.90;77.90
38241;DHT22;24037;49.536;8.500;2022-08-26T09:23:43;24.80;78.70
38241;DHT22;24037;49.536;8.500;2022-08-26T09:26:15;24.70;78.70
38241;DHT22;24037;49.536;8.500;2022-08-26T09:28:44;24.50;79.90
38241;DHT22;24037;49.536;8.500;2022-08-26T09:33:39;25.10;78.90
38241;DHT22;24037;49.536;8.500;2022-08-26T09:36:21;26.10;75.10
38241;DHT22;24037;49.536;8.500;2022-08-26T09:38:51;27.20;71.90
38241;DHT22;24037;49.536;8.500;2022-08-26T09:41:36;27.30;70.40
38241;DHT22;24037;49.536;8.500;2022-08-26T09:44:09;27.80;68.90
38241;DHT22;24037;49.536;8.500;2022-08-26T09:46:37;27.00;70.30
38241;DHT22;24037;49.536;8.500;2022-08-26T09:49:49;26.70;70.30
38241;DHT22;24037;49.536;8.500;2022-08-26T09:54:39;26.80;70.40
38241;DHT22;24037;49.536;8.500;2022-08-26T09:57:12;26.80;70.20
38241;DHT22;24037;49.536;8.500;2022-08-26T09:59:38;26.50;70.10
38241;DHT22;24037;49.536;8.500;2022-08-26T10:02:27;26.30;71.40
38241;DHT22;24037;49.536;8.500;2022-08-26T10:04:55;26.20;71.70
38241;DHT22;24037;49.536;8.500;2022-08-26T10:07:39;26.30;71.20
38241;DHT22;24037;49.536;8.500;2022-08-26T10:10:06;25.90;71.70
38241;DHT22;24037;49.536;8.500;2022-08-26T10:12:34;26.50;73.50
38241;DHT22;24037;49.536;8.500;2022-08-26T10:15:02;26.70;70.50
38241;DHT22;24037;49.536;8.500;2022-08-26T10:17:34;27.10;68.80
38241;DHT22;24037;49.536;8.500;2022-08-26T10:20:12;27.60;68.40
38241;DHT22;24037;49.536;8.500;2022-08-26T10:22:41;27.50;66.10
38241;DHT22;24037;49.536;8.500;2022-08-26T10:25:11;27.80;65.10
38241;DHT22;24037;49.536;8.500;2022-08-26T10:27:41;28.10;63.70
38241;DHT22;24037;49.536;8.500;2022-08-26T10:30:18;27.70;64.70
38241;DHT22;24037;49.536;8.500;2022-08-26T10:32:47;27.80;64.90
38241;DHT22;24037;49.536;8.500;2022-08-26T10:35:14;28.40;66.50
38241;DHT22;24037;49.536;8.500;2022-08-26T10:37:42;29.30;61.40
38241;DHT22;24037;49.536;8.500;2022-08-26T10:40:19;28.40;61.30
38241;DHT22;24037;49.536;8.500;2022-08-26T10:42:50;28.10;62.50
38241;DHT22;24037;49.536;8.500;2022-08-26T10:45:18;28.80;60.70
38241;DHT22;24037;49.536;8.500;2022-08-26T10:47:54;29.00;60.30
38241;DHT22;24037;49.536;8.500;2022-08-26T10:50:29;29.10;60.30
38241;DHT22;24037;49.536;8.500;2022-08-26T11:01:13;30.30;58.70
38241;DHT22;24037;49.536;8.500;2022-08-26T11:06:33;30.90;56.20
38241;DHT22;24037;49.536;8.500;2022-08-26T11:09:01;31.00;55.20
38241;DHT22;24037;49.536;8.500;2022-08-26T11:11:49;30.90;55.70
38241;DHT22;24037;49.536;8.500;2022-08-26T11:16:43;31.00;55.20
38241;DHT22;24037;49.536;8.500;2022-08-26T11:19:11;30.70;56.30
38241;DHT22;24037;49.536;8.500;2022-08-26T11:21:41;30.60;56.20
38241;DHT22;24037;49.536;8.500;2022-08-26T11:24:09;30.60;55.30
38241;DHT22;24037;49.536;8.500;2022-08-26T11:26:54;30.70;55.50
38241;DHT22;24037;49.536;8.500;2022-08-26T11:32:04;30.50;56.30
38241;DHT22;24037;49.536;8.500;2022-08-26T11:34:49;30.40;56.80
38241;DHT22;24037;49.536;8.500;2022-08-26T11:37:16;30.40;56.50
38241;DHT22;24037;49.536;8.500;2022-08-26T11:39:46;29.90;56.70
38241;DHT22;24037;49.536;8.500;2022-08-26T11:42:16;30.00;56.80
38241;DHT22;24037;49.536;8.500;2022-08-26T11:44:43;30.30;56.10
38241;DHT22;24037;49.536;8.500;2022-08-26T11:47:14;30.40;56.10
38241;DHT22;24037;49.536;8.500;2022-08-26T11:49:41;30.60;56.30
38241;DHT22;24037;49.536;8.500;2022-08-26T11:52:28;30.50;55.70
38241;DHT22;24037;49.536;8.500;2022-08-26T11:55:00;30.50;55.70
38241;DHT22;24037;49.536;8.500;2022-08-26T11:57:27;30.60;55.20
38241;DHT22;24037;49.536;8.500;2022-08-26T11:59:53;30.70;54.90
38241;DHT22;24037;49.536;8.500;2022-08-26T12:02:20;30.90;54.20
38241;DHT22;24037;49.536;8.500;2022-08-26T12:04:47;30.80;54.20
38241;DHT22;24037;49.536;8.500;2022-08-26T12:07:14;30.90;54.60
38241;DHT22;24037;49.536;8.500;2022-08-26T12:09:59;31.00;54.50
38241;DHT22;24037;49.536;8.500;2022-08-26T12:12:33;31.20;54.20
38241;DHT22;24037;49.536;8.500;2022-08-26T12:15:18;31.20;53.90
38241;DHT22;24037;49.536;8.500;2022-08-26T12:17:46;31.10;54.60
38241;DHT22;24037;49.536;8.500;2022-08-26T12:20:26;31.40;53.80
38241;DHT22;24037;49.536;8.500;2022-08-26T12:22:54;31.00;54.10
38241;DHT22;24037;49.536;8.500;2022-08-26T12:25:23;30.70;55.20
38241;DHT22;24037;49.536;8.500;2022-08-26T12:27:50;30.80;55.20
38241;DHT22;24037;49.536;8.500;2022-08-26T12:30:23;31.10;54.10
38241;DHT22;24037;49.536;8.500;2022-08-26T12:33:02;30.80;54.70
38241;DHT22;24037;49.536;8.500;2022-08-26T12:35:28;30.90;54.20
38241;DHT22;24037;49.536;8.500;2022-08-26T12:37:55;31.20;54.60
38241;DHT22;24037;49.536;8.500;2022-08-26T12:42:58;31.00;55.00
38241;DHT22;24037;49.536;8.500;2022-08-26T12:45:26;31.20;54.90
38241;DHT22;24037;49.536;8.500;2022-08-26T12:47:54;30.80;54.60
38241;DHT22;24037;49.536;8.500;2022-08-26T12:50:25;30.50;55.10
38241;DHT22;24037;49.536;8.500;2022-08-26T13:00:53;30.50;54.30
38241;DHT22;24037;49.536;8.500;2022-08-26T13:08:39;30.70;53.70
38241;DHT22;24037;49.536;8.500;2022-08-26T13:11:10;30.90;52.40
38241;DHT22;24037;49.536;8.500;2022-08-26T13:13:37;30.80;52.70
38241;DHT22;24037;49.536;8.500;2022-08-26T13:16:03;30.70;51.90
38241;DHT22;24037;49.536;8.500;2022-08-26T13:18:29;30.80;52.50
38241;DHT22;24037;49.536;8.500;2022-08-26T13:20:55;31.20;53.00
38241;DHT22;24037;49.536;8.500;2022-08-26T13:23:21;31.90;51.50
38241;DHT22;24037;49.536;8.500;2022-08-26T13:25:48;32.10;50.50
38241;DHT22;24037;49.536;8.500;2022-08-26T13:28:14;31.60;50.80
38241;DHT22;24037;49.536;8.500;2022-08-26T13:30:40;31.90;52.00
38241;DHT22;24037;49.536;8.500;2022-08-26T13:33:08;31.90;50.40
38241;DHT22;24037;49.536;8.500;2022-08-26T13:35:34;31.60;50.50
38241;DHT22;24037;49.536;8.500;2022-08-26T13:38:00;31.40;51.30
38241;DHT22;24037;49.536;8.500;2022-08-26T13:40:26;31.70;51.50
38241;DHT22;24037;49.536;8.500;2022-08-26T13:42:52;32.20;49.70
38241;DHT22;24037;49.536;8.500;2022-08-26T13:45:18;31.70;50.60
38241;DHT22;24037;49.536;8.500;2022-08-26T13:47:44;31.90;50.10
38241;DHT22;24037;49.536;8.500;2022-08-26T13:50:10;31.90;50.10
38241;DHT22;24037;49.536;8.500;2022-08-26T13:52:36;31.90;50.50
38241;DHT22;24037;49.536;8.500;2022-08-26T13:55:02;31.90;50.80
38241;DHT22;24037;49.536;8.500;2022-08-26T13:57:28;31.70;50.90
38241;DHT22;24037;49.536;8.500;2022-08-26T13:59:55;31.60;51.90
38241;DHT22;24037;49.536;8.500;2022-08-26T14:02:23;31.60;51.80
38241;DHT22;24037;49.536;8.500;2022-08-26T14:04:50;31.40;52.30
38241;DHT22;24037;49.536;8.500;2022-08-26T14:07:18;31.40;52.60
38241;DHT22;24037;49.536;8.500;2022-08-26T14:09:44;31.40;52.30
38241;DHT22;24037;49.536;8.500;2022-08-26T14:12:10;31.90;52.70
38241;DHT22;24037;49.536;8.500;2022-08-26T14:14:36;31.60;52.20
38241;DHT22;24037;49.536;8.500;2022-08-26T14:17:02;31.50;52.40
38241;DHT22;24037;49.536;8.500;2022-08-26T14:19:28;31.70;51.50
38241;DHT22;24037;49.536;8.500;2022-08-26T14:21:54;31.60;52.20
38241;DHT22;24037;49.536;8.500;2022-08-26T14:24:21;31.40;52.20
38241;DHT22;24037;49.536;8.500;2022-08-26T14:26:47;31.60;51.90
38241;DHT22;24037;49.536;8.500;2022-08-26T14:29:13;31.90;51.80
38241;DHT22;24037;49.536;8.500;2022-08-26T14:31:39;32.00;50.50
38241;DHT22;24037;49.536;8.500;2022-08-26T14:34:05;31.60;50.60
38241;DHT22;24037;49.536;8.500;2022-08-26T14:36:32;31.50;50.90
38241;DHT22;24037;49.536;8.500;2022-08-26T14:39:00;31.30;51.10
38241;DHT22;24037;49.536;8.500;2022-08-26T14:41:27;31.20;51.30
38241;DHT22;24037;49.536;8.500;2022-08-26T14:43:55;31.30;51.40
38241;DHT22;24037;49.536;8.500;2022-08-26T14:46:25;31.30;51.00
38241;DHT22;24037;49.536;8.500;2022-08-26T14:48:54;31.20;50.90
38241;DHT22;24037;49.536;8.500;2022-08-26T14:51:20;31.10;51.00
38241;DHT22;24037;49.536;8.500;2022-08-26T14:53:46;30.80;51.00
38241;DHT22;24037;49.536;8.500;2022-08-26T14:56:32;30.80;51.40
38241;DHT22;24037;49.536;8.500;2022-08-26T14:58:58;30.90;50.70
38241;DHT22;24037;49.536;8.500;2022-08-26T15:01:24;30.90;52.30
38241;DHT22;24037;49.536;8.500;2022-08-26T15:03:50;30.60;52.40
38241;DHT22;24037;49.536;8.500;2022-08-26T15:06:17;30.40;52.80
38241;DHT22;24037;49.536;8.500;2022-08-26T15:08:43;30.20;53.00
38241;DHT22;24037;49.536;8.500;2022-08-26T15:11:10;30.00;52.90
38241;DHT22;24037;49.536;8.500;2022-08-26T15:13:37;29.90;53.10
38241;DHT22;24037;49.536;8.500;2022-08-26T15:16:03;29.80;53.60
38241;DHT22;24037;49.536;8.500;2022-08-26T15:18:29;29.80;54.10
38241;DHT22;24037;49.536;8.500;2022-08-26T15:20:56;29.90;54.10
38241;DHT22;24037;49.536;8.500;2022-08-26T15:23:22;29.90;54.30
38241;DHT22;24037;49.536;8.500;2022-08-26T15:25:48;30.10;54.10
38241;DHT22;24037;49.536;8.500;2022-08-26T15:28:14;30.20;53.80
38241;DHT22;24037;49.536;8.500;2022-08-26T15:30:40;30.00;53.80
38241;DHT22;24037;49.536;8.500;2022-08-26T15:33:07;29.70;54.90
38241;DHT22;24037;49.536;8.500;2022-08-26T15:35:33;29.50;55.10
38241;DHT22;24037;49.536;8.500;2022-08-26T15:37:59;29.30;55.30
38241;DHT22;24037;49.536;8.500;2022-08-26T15:40:25;29.10;55.80
38241;DHT22;24037;49.536;8.500;2022-08-26T15:42:51;29.00;56.30
38241;DHT22;24037;49.536;8.500;2022-08-26T15:45:17;28.90;56.90
38241;DHT22;24037;49.536;8.500;2022-08-26T15:47:43;28.80;57.50
38241;DHT22;24037;49.536;8.500;2022-08-26T15:50:09;28.80;57.50
38241;DHT22;24037;49.536;8.500;2022-08-26T15:52:38;28.70;57.90
38241;DHT22;24037;49.536;8.500;2022-08-26T15:55:04;28.70;58.20
38241;DHT22;24037;49.536;8.500;2022-08-26T15:57:31;28.50;58.90
38241;DHT22;24037;49.536;8.500;2022-08-26T15:59:57;28.50;59.80
38241;DHT22;24037;49.536;8.500;2022-08-26T16:02:23;28.50;59.80
38241;DHT22;24037;49.536;8.500;2022-08-26T16:04:49;28.70;59.90
38241;DHT22;24037;49.536;8.500;2022-08-26T16:07:15;28.60;60.70
38241;DHT22;24037;49.536;8.500;2022-08-26T16:09:41;28.50;61.50
38241;DHT22;24037;49.536;8.500;2022-08-26T16:12:07;28.40;62.50
38241;DHT22;24037;49.536;8.500;2022-08-26T16:14:33;28.40;63.30
38241;DHT22;24037;49.536;8.500;2022-08-26T16:16:59;28.30;63.70
38241;DHT22;24037;49.536;8.500;2022-08-26T16:19:25;28.10;64.80
38241;DHT22;24037;49.536;8.500;2022-08-26T16:21:51;27.70;65.90
38241;DHT22;24037;49.536;8.500;2022-08-26T16:24:18;27.60;66.90
38241;DHT22;24037;49.536;8.500;2022-08-26T16:26:47;27.70;67.20